Time;durP1;ratioP1;P1;durP2;ratioP2;P2;SDS_P1;SDS_P2;PMS_P1;PMS_P2;Temp;Humidity;BMP_temperature;BMP_pressure;BME280_temperature;BME280_humidity;BME280_pressure;Samples;Min_cycle;Max_cycle;Signal;HPM_P1;HPM_P2
2022/03/15 00:05:01;;;;;;;;;;;;;;;;;;10478969;28;20036;-76
2022/03/15 00:10:04;;;;;;;5.82;2.88;;;;;;;;;;10488688;28;19927;-76
2022/03/15 00:15:09;;;;;;;6.65;2.65;;;;;;;;;;10475491;28;20036;-75
2022/03/15 00:20:14;;;;;;;5.10;2.90;;;;;;;;;;10486844;28;20048;-76
2022/03/15 00:25:18;;;;;;;9.07;3.08;;;;;;;;;;10492526;28;20093;-76
2022/03/15 00:30:23;;;;;;;9.83;3.30;;;;;;;;;;10496793;28;20458;-76
2022/03/15 00:35:26;;;;;;;7.80;3.38;;;;;;;;;;10488614;28;20072;-75
2022/03/15 00:40:30;;;;;;;5.43;3.13;;;;;;;;;;10484992;28;20050;-75
2022/03/15 00:45:34;;;;;;;7.55;3.30;;;;;;;;;;10477592;28;20156;-75
2022/03/15 00:50:40;;;;;;;;;;;;;;;;;;10477903;28;20442;-75
2022/03/15 00:55:43;;;;;;;5.85;3.28;;;;;;;;;;10472751;28;20019;-76
2022/03/15 01:00:48;;;;;;;7.97;3.58;;;;;;;;;;10480577;28;20033;-75
2022/03/15 01:05:51;;;;;;;8.88;3.72;;;;;;;;;;10485856;28;20153;-76
2022/03/15 01:10:54;;;;;;;7.35;3.50;;;;;;;;;;10474190;28;20135;-74
2022/03/15 01:15:59;;;;;;;7.05;3.42;;;;;;;;;;10476770;28;20044;-76
2022/03/15 01:21:02;;;;;;;8.80;4.00;;;;;;;;;;10485581;28;20040;-76
2022/03/15 01:26:05;;;;;;;8.48;3.92;;;;;;;;;;10481267;28;20098;-75
2022/03/15 01:31:11;;;;;;;8.43;3.67;;;;;;;;;;10483621;28;20033;-75
2022/03/15 01:36:14;;;;;;;13.40;3.88;;;;;;;;;;10486713;28;20052;-73
2022/03/15 01:41:17;;;;;;;9.75;4.28;;;;;;;;;;10475808;28;20032;-75
2022/03/15 01:46:24;;;;;;;10.55;3.65;;;;;;;;;;10483999;28;20119;-76
2022/03/15 01:51:27;;;;;;;8.63;4.28;;;;;;;;;;10471658;28;20028;-75
2022/03/15 01:56:30;;;;;;;12.85;4.30;;;;;;;;;;10486757;28;20087;-75
2022/03/15 02:01:34;;;;;;;10.87;4.67;;;;;;;;;;10484373;28;20403;-75
2022/03/15 02:06:38;;;;;;;11.70;4.85;;;;;;;;;;10492722;28;20045;-75
2022/03/15 02:11:42;;;;;;;9.93;4.80;;;;;;;;;;10494269;28;20546;-77
2022/03/15 02:16:46;;;;;;;11.77;4.53;;;;;;;;;;10494742;28;20098;-75
2022/03/15 02:21:49;;;;;;;;;;;;;;;;;;10474328;28;20041;-74
2022/03/15 02:26:53;;;;;;;10.32;3.75;;;;;;;;;;10487772;28;19939;-75
2022/03/15 02:31:56;;;;;;;;;;;;;;;;;;10488001;28;20086;-75
2022/03/15 02:36:59;;;;;;;10.07;4.60;;;;;;;;;;10483480;28;19920;-74
2022/03/15 02:42:03;;;;;;;9.25;4.40;;;;;;;;;;10482929;28;20086;-76
2022/03/15 02:47:06;;;;;;;11.80;5.10;;;;;;;;;;10485690;28;20048;-75
2022/03/15 02:52:10;;;;;;;12.25;5.72;;;;;;;;;;10482683;28;20033;-75
2022/03/15 02:57:14;;;;;;;10.50;4.30;;;;;;;;;;10484899;28;20045;-74
2022/03/15 03:02:17;;;;;;;;;;;;;;;;;;10502964;22;20183;-75
2022/03/15 03:07:20;;;;;;;11.80;4.70;;;;;;;;;;10497402;28;19946;-74
2022/03/15 03:12:29;;;;;;;7.55;4.43;;;;;;;;;;10513691;28;20082;-76
2022/03/15 03:17:32;;;;;;;7.97;4.28;;;;;;;;;;10507900;28;20154;-75
2022/03/15 03:22:35;;;;;;;11.85;4.40;;;;;;;;;;10505530;28;20439;-76
2022/03/15 03:27:39;;;;;;;11.30;4.22;;;;;;;;;;10513437;28;20457;-74
2022/03/15 03:32:42;;;;;;;;;;;;;;;;;;10503120;28;20086;-74
2022/03/15 03:37:44;;;;;;;9.53;3.77;;;;;;;;;;10509280;28;20253;-73
2022/03/15 03:42:49;;;;;;;6.95;3.97;;;;;;;;;;10502308;28;20411;-73
2022/03/15 03:47:51;;;;;;;;;;;;;;;;;;10507248;28;20723;-76
2022/03/15 03:52:54;;;;;;;9.20;4.20;;;;;;;;;;10497858;28;20011;-75
2022/03/15 03:57:59;;;;;;;11.32;4.30;;;;;;;;;;10490059;28;20047;-76
2022/03/15 04:03:01;;;;;;;;;;;;;;;;;;10513224;28;20043;-76
2022/03/15 04:08:04;;;;;;;10.67;4.57;;;;;;;;;;10514367;28;20038;-74
2022/03/15 04:13:11;;;;;;;9.97;4.27;;;;;;;;;;10487009;28;20124;-75
2022/03/15 04:18:16;;;;;;;12.70;4.97;;;;;;;;;;10511587;28;20053;-74
2022/03/15 04:23:19;;;;;;;10.90;4.80;;;;;;;;;;10516286;28;20146;-76
2022/03/15 04:28:23;;;;;;;11.68;5.50;;;;;;;;;;10510881;28;20423;-75
2022/03/15 04:33:26;;;;;;;11.30;4.22;;;;;;;;;;10504683;28;20172;-74
2022/03/15 04:38:29;;;;;;;9.57;4.18;;;;;;;;;;10503068;28;20496;-76
2022/03/15 04:43:33;;;;;;;12.97;4.80;;;;;;;;;;10506734;28;20043;-75
2022/03/15 04:48:36;;;;;;;;;;;;;;;;;;10494620;28;20052;-75
2022/03/15 04:53:39;;;;;;;15.10;5.40;;;;;;;;;;10492380;28;19921;-76
2022/03/15 04:58:43;;;;;;;8.40;4.40;;;;;;;;;;10523654;28;20067;-74
2022/03/15 05:03:45;;;;;;;;;;;;;;;;;;10493141;28;20048;-73
2022/03/15 05:08:49;;;;;;;10.67;4.67;;;;;;;;;;10501071;28;19926;-75
2022/03/15 05:13:53;;;;;;;11.35;4.40;;;;;;;;;;10490758;28;20412;-75
2022/03/15 05:18:57;;;;;;;14.07;4.75;;;;;;;;;;10489448;28;20058;-76
2022/03/15 05:24:00;;;;;;;11.02;5.10;;;;;;;;;;10495291;28;20173;-75
2022/03/15 05:29:04;;;;;;;11.02;4.70;;;;;;;;;;10504769;28;20407;-76
2022/03/15 05:34:07;;;;;;;;;;;;;;;;;;10498390;28;20040;-74
2022/03/15 05:39:11;;;;;;;9.40;4.28;;;;;;;;;;10515545;28;20015;-75
2022/03/15 05:44:15;;;;;;;10.13;4.65;;;;;;;;;;10511367;28;20033;-74
2022/03/15 05:49:18;;;;;;;12.93;5.07;;;;;;;;;;10502286;28;20138;-75
2022/03/15 05:54:21;;;;;;;13.37;5.60;;;;;;;;;;10492082;28;20047;-73
2022/03/15 05:59:25;;;;;;;13.18;5.40;;;;;;;;;;10517360;28;20041;-75
2022/03/15 06:04:29;;;;;;;12.67;4.80;;;;;;;;;;10510317;28;20662;-77
2022/03/15 06:09:32;;;;;;;10.73;4.70;;;;;;;;;;10519518;28;20039;-75
2022/03/15 06:14:37;;;;;;;13.02;4.22;;;;;;;;;;10519416;28;20039;-75
2022/03/15 06:19:40;;;;;;;13.30;5.60;;;;;;;;;;10500132;28;20460;-76
2022/03/15 06:24:43;;;;;;;3.58;2.33;;;;;;;;;;10496935;28;20051;-75
2022/03/15 06:29:47;;;;;;;6.25;3.67;;;;;;;;;;10516109;28;20089;-75
2022/03/15 06:34:49;;;;;;;;;;;;;;;;;;10514218;28;20024;-74
2022/03/15 06:39:52;;;;;;;12.07;5.50;;;;;;;;;;10508623;28;19934;-74
2022/03/15 06:44:57;;;;;;;13.27;5.72;;;;;;;;;;10502326;28;20043;-74
2022/03/15 06:50:00;;;;;;;14.77;5.82;;;;;;;;;;10521839;28;20032;-76
2022/03/15 06:55:04;;;;;;;19.55;8.30;;;;;;;;;;10517078;28;20039;-75
2022/03/15 07:00:09;;;;;;;16.95;7.20;;;;;;;;;;10505394;28;20047;-77
2022/03/15 07:05:13;;;;;;;11.55;5.90;;;;;;;;;;10511288;28;20036;-76
2022/03/15 07:10:17;;;;;;;12.77;5.57;;;;;;;;;;10505374;28;20048;-75
2022/03/15 07:15:22;;;;;;;13.70;5.82;;;;;;;;;;10493423;28;20571;-75
2022/03/15 07:20:26;;;;;;;10.90;5.60;;;;;;;;;;10497632;28;20323;-76
2022/03/15 07:25:29;;;;;;;14.38;5.85;;;;;;;;;;10513198;28;20155;-74
2022/03/15 07:30:33;;;;;;;11.07;5.23;;;;;;;;;;10515498;28;20846;-76
2022/03/15 07:35:37;;;;;;;10.75;3.67;;;;;;;;;;10497998;28;20035;-76
2022/03/15 07:40:41;;;;;;;7.38;3.70;;;;;;;;;;10491226;28;20041;-76
2022/03/15 07:45:46;;;;;;;11.77;5.07;;;;;;;;;;10502233;28;20399;-77
2022/03/15 07:50:52;;;;;;;5.05;2.55;;;;;;;;;;10519647;28;20039;-75
2022/03/15 07:55:55;;;;;;;9.90;3.63;;;;;;;;;;10521039;28;20040;-74
2022/03/15 08:00:59;;;;;;;9.07;4.50;;;;;;;;;;10496859;28;20116;-75
2022/03/15 08:06:02;;;;;;;13.45;4.97;;;;;;;;;;10515948;28;20040;-75
2022/03/15 08:11:07;;;;;;;10.98;4.90;;;;;;;;;;10522029;28;20662;-74
2022/03/15 08:16:11;;;;;;;12.32;4.93;;;;;;;;;;10523943;28;20045;-76
2022/03/15 08:21:16;;;;;;;7.47;3.85;;;;;;;;;;10520964;28;20045;-76
2022/03/15 08:26:19;;;;;;;11.53;4.70;;;;;;;;;;10498245;22;20189;-71
2022/03/15 08:31:24;;;;;;;10.00;4.50;;;;;;;;;;10443755;28;20413;-71
2022/03/15 08:36:26;;;;;;;14.27;4.15;;;;;;;;;;10420540;28;20029;-72
2022/03/15 08:41:29;;;;;;;9.93;4.32;;;;;;;;;;10433806;28;20433;-72
2022/03/15 08:46:33;;;;;;;9.63;3.33;;;;;;;;;;10430739;28;20081;-72
2022/03/15 08:51:37;;;;;;;6.63;3.50;;;;;;;;;;10439615;28;20559;-72
2022/03/15 08:56:41;;;;;;;8.45;3.83;;;;;;;;;;10446440;28;20721;-73
2022/03/15 09:01:46;;;;;;;7.03;3.05;;;;;;;;;;10482027;22;20073;-74
2022/03/15 09:06:49;;;;;;;11.77;3.75;;;;;;;;;;10502396;28;20044;-75
2022/03/15 09:11:53;;;;;;;11.20;3.92;;;;;;;;;;10509704;28;20064;-74
2022/03/15 09:16:58;;;;;;;13.25;4.70;;;;;;;;;;10464515;28;20508;-74
2022/03/15 09:22:03;;;;;;;7.68;3.88;;;;;;;;;;10478628;28;20512;-73
2022/03/15 09:27:06;;;;;;;13.10;4.63;;;;;;;;;;10492836;28;20040;-74
2022/03/15 09:32:12;;;;;;;7.97;3.65;;;;;;;;;;10473827;28;20075;-74
2022/03/15 09:37:15;;;;;;;8.13;3.15;;;;;;;;;;10493050;28;20060;-75
2022/03/15 09:42:19;;;;;;;11.10;4.05;;;;;;;;;;10479255;28;20048;-74
2022/03/15 09:47:25;;;;;;;5.22;2.70;;;;;;;;;;10488615;28;20032;-74
2022/03/15 09:52:29;;;;;;;9.70;4.03;;;;;;;;;;10481787;28;20098;-72
2022/03/15 09:57:33;;;;;;;7.80;3.70;;;;;;;;;;10506344;28;20033;-74
2022/03/15 10:02:39;;;;;;;7.85;3.65;;;;;;;;;;10512949;28;20060;-73
2022/03/15 10:07:42;;;;;;;6.88;3.35;;;;;;;;;;10497017;28;20035;-75
2022/03/15 10:12:45;;;;;;;10.85;3.75;;;;;;;;;;10502090;28;20060;-74
2022/03/15 10:17:52;;;;;;;8.68;3.83;;;;;;;;;;10485693;28;20467;-74
2022/03/15 10:22:56;;;;;;;4.40;2.38;;;;;;;;;;10483039;28;20074;-76
2022/03/15 10:27:58;;;;;;;;;;;;;;;;;;10481588;28;20079;-74
2022/03/15 10:33:03;;;;;;;9.98;3.65;;;;;;;;;;10494151;28;20380;-76
2022/03/15 10:38:07;;;;;;;7.82;3.33;;;;;;;;;;10500326;28;20041;-74
2022/03/15 10:43:11;;;;;;;4.32;2.15;;;;;;;;;;10502826;28;20044;-75
2022/03/15 10:48:20;;;;;;;10.82;3.35;;;;;;;;;;10488508;28;20136;-74
2022/03/15 10:53:25;;;;;;;5.25;2.78;;;;;;;;;;10504345;28;20045;-74
2022/03/15 10:58:28;;;;;;;8.40;3.30;;;;;;;;;;10508632;28;20038;-74
2022/03/15 11:03:33;;;;;;;7.67;3.53;;;;;;;;;;10489098;28;20135;-75
2022/03/15 11:08:37;;;;;;;5.72;3.22;;;;;;;;;;10482946;28;20028;-74
2022/03/15 11:13:40;;;;;;;9.50;3.88;;;;;;;;;;10484172;28;20036;-74
2022/03/15 11:18:44;;;;;;;6.13;3.37;;;;;;;;;;10494962;28;20480;-74
2022/03/15 11:23:48;;;;;;;5.65;3.22;;;;;;;;;;10489637;28;20075;-75
2022/03/15 11:28:52;;;;;;;5.32;2.88;;;;;;;;;;10487319;28;21420;-75
2022/03/15 11:34:00;;;;;;;7.70;3.10;;;;;;;;;;10465633;28;20038;-76
2022/03/15 11:39:04;;;;;;;6.50;3.10;;;;;;;;;;10486022;28;20452;-74
2022/03/15 11:44:11;;;;;;;7.25;2.97;;;;;;;;;;10468371;28;20043;-74
2022/03/15 11:49:24;;;;;;;8.25;3.30;;;;;;;;;;10499553;28;20040;-75
2022/03/15 11:54:27;;;;;;;;;;;;;;;;;;10465146;28;20276;-73
2022/03/15 11:59:45;;;;;;;8.45;3.30;;;;;;;;;;10491807;28;19924;-73
2022/03/15 12:04:49;;;;;;;11.27;4.32;;;;;;;;;;10471682;28;20028;-74
2022/03/15 12:09:58;;;;;;;7.93;3.42;;;;;;;;;;10490214;28;20055;-75
2022/03/15 12:15:12;;;;;;;7.05;2.33;;;;;;;;;;10497750;28;20326;-74
2022/03/15 12:20:16;;;;;;;9.23;3.00;;;;;;;;;;10466900;28;20048;-75
2022/03/15 12:25:21;;;;;;;6.60;2.88;;;;;;;;;;10486480;28;20036;-71
2022/03/15 12:30:30;;;;;;;7.57;4.25;;;;;;;;;;10473150;28;20101;-75
2022/03/15 12:35:36;;;;;;;9.82;3.15;;;;;;;;;;10487588;28;20032;-74
2022/03/15 12:40:42;;;;;;;10.23;3.58;;;;;;;;;;10469746;28;20068;-73
2022/03/15 12:45:46;;;;;;;7.47;3.28;;;;;;;;;;10470636;28;20029;-75
2022/03/15 12:50:54;;;;;;;10.18;3.28;;;;;;;;;;10472027;28;20068;-75
2022/03/15 12:55:58;;;;;;;8.77;3.05;;;;;;;;;;10502263;28;20052;-74
2022/03/15 13:01:01;;;;;;;8.93;3.30;;;;;;;;;;10486516;28;20554;-75
2022/03/15 13:06:16;;;;;;;7.78;3.30;;;;;;;;;;10472068;28;20070;-75
2022/03/15 13:11:19;;;;;;;6.10;2.33;;;;;;;;;;10494870;28;20048;-75
2022/03/15 13:16:23;;;;;;;5.63;2.38;;;;;;;;;;10488877;28;20428;-75
2022/03/15 13:21:33;;;;;;;5.43;1.98;;;;;;;;;;10472990;28;20064;-75
2022/03/15 13:26:38;;;;;;;2.30;1.48;;;;;;;;;;10505895;28;20032;-74
2022/03/15 13:31:41;;;;;;;3.17;1.65;;;;;;;;;;10470711;28;20419;-74
2022/03/15 13:36:46;;;;;;;4.47;1.83;;;;;;;;;;10486118;28;20032;-75
2022/03/15 13:41:51;;;;;;;3.38;1.63;;;;;;;;;;10478294;28;20095;-74
2022/03/15 13:47:04;;;;;;;3.38;1.63;;;;;;;;;;10476792;28;20097;-74
2022/03/15 13:52:13;;;;;;;5.82;2.05;;;;;;;;;;10476953;28;20040;-74
2022/03/15 13:57:25;;;;;;;6.38;2.33;;;;;;;;;;10494003;28;20037;-75
2022/03/15 14:02:32;;;;;;;8.38;2.78;;;;;;;;;;10502538;28;20040;-76
2022/03/15 14:07:37;;;;;;;6.28;2.20;;;;;;;;;;10513150;28;20040;-74
2022/03/15 14:12:42;;;;;;;9.38;2.50;;;;;;;;;;10512168;28;20036;-74
2022/03/15 14:17:48;;;;;;;9.05;2.95;;;;;;;;;;10513419;28;20090;-74
2022/03/15 14:22:55;;;;;;;7.18;2.08;;;;;;;;;;10526386;28;20042;-74
2022/03/15 14:27:59;;;;;;;4.05;2.17;;;;;;;;;;10476914;28;20178;-75
2022/03/15 14:33:03;;;;;;;5.68;2.45;;;;;;;;;;10470294;28;20102;-75
2022/03/15 14:38:13;;;;;;;14.93;2.90;;;;;;;;;;10471854;28;20036;-74
2022/03/15 14:43:18;;;;;;;2.58;2.03;;;;;;;;;;10472297;28;20048;-74
2022/03/15 14:48:25;;;;;;;7.82;2.72;;;;;;;;;;10489246;28;20044;-77
2022/03/15 14:53:31;;;;;;;10.73;3.88;;;;;;;;;;10490763;28;20049;-74
2022/03/15 14:58:36;;;;;;;8.43;4.25;;;;;;;;;;10499922;28;20105;-74
2022/03/15 15:03:39;;;;;;;1.95;1.33;;;;;;;;;;10492707;22;20036;-76
2022/03/15 15:08:46;;;;;;;10.20;3.92;;;;;;;;;;10477988;28;20047;-76
2022/03/15 15:13:49;;;;;;;5.82;2.63;;;;;;;;;;10465867;28;20543;-76
2022/03/15 15:18:52;;;;;;;14.90;6.00;;;;;;;;;;10466110;28;20120;-76
2022/03/15 15:23:56;;;;;;;6.72;2.97;;;;;;;;;;10450073;28;20484;-77
2022/03/15 15:29:00;;;;;;;8.23;3.60;;;;;;;;;;10495617;28;20041;-77
2022/03/15 15:34:05;;;;;;;10.45;3.80;;;;;;;;;;10451599;28;20059;-77
2022/03/15 15:39:09;;;;;;;15.10;5.00;;;;;;;;;;10449743;28;20032;-78
2022/03/15 15:44:14;;;;;;;8.70;4.13;;;;;;;;;;10439509;28;20480;-78
2022/03/15 15:49:17;;;;;;;8.20;3.40;;;;;;;;;;10438567;28;20479;-76
2022/03/15 15:54:22;;;;;;;12.23;4.88;;;;;;;;;;10422274;28;20045;-73
2022/03/15 15:59:30;;;;;;;12.10;5.70;;;;;;;;;;10419264;28;20111;-73
2022/03/15 16:04:34;;;;;;;9.90;4.75;;;;;;;;;;10443525;28;20083;-72
2022/03/15 16:09:38;;;;;;;9.63;3.03;;;;;;;;;;10436379;28;20037;-73
2022/03/15 16:14:41;;;;;;;16.13;5.30;;;;;;;;;;10432281;28;20045;-73
2022/03/15 16:19:54;;;;;;;7.68;4.38;;;;;;;;;;10436236;28;20059;-72
2022/03/15 16:24:59;;;;;;;6.50;2.70;;;;;;;;;;10444158;28;20040;-72
2022/03/15 16:30:02;;;;;;;9.45;3.08;;;;;;;;;;10438921;28;20025;-72
2022/03/15 16:35:05;;;;;;;12.63;5.40;;;;;;;;;;10438053;28;20087;-73
2022/03/15 16:40:29;;;;;;;16.33;4.68;;;;;;;;;;10415018;28;20037;-73
2022/03/15 16:45:34;;;;;;;13.40;4.15;;;;;;;;;;10435136;28;20344;-73
2022/03/15 16:50:38;;;;;;;12.35;4.10;;;;;;;;;;10438758;28;20058;-73
2022/03/15 16:55:48;;;;;;;9.93;3.07;;;;;;;;;;10433592;28;20641;-73
2022/03/15 17:00:51;;;;;;;7.90;2.83;;;;;;;;;;10444749;28;20389;-73
2022/03/15 17:05:54;;;;;;;12.15;3.50;;;;;;;;;;10448325;28;20037;-73
2022/03/15 17:11:00;;;;;;;14.35;4.13;;;;;;;;;;10425428;28;20132;-74
2022/03/15 17:16:03;;;;;;;15.23;2.20;;;;;;;;;;10446601;28;20091;-75
2022/03/15 17:21:16;;;;;;;15.33;2.93;;;;;;;;;;10428557;28;20033;-73
2022/03/15 17:26:23;;;;;;;4.35;1.25;;;;;;;;;;10460370;28;20306;-73
2022/03/15 17:31:31;;;;;;;14.63;3.85;;;;;;;;;;10447258;28;20041;-73
2022/03/15 17:36:35;;;;;;;12.73;3.50;;;;;;;;;;10440155;28;20036;-73
2022/03/15 17:41:53;;;;;;;15.82;4.32;;;;;;;;;;10424816;28;20102;-73
2022/03/15 17:46:56;;;;;;;13.85;3.40;;;;;;;;;;10435925;28;20033;-73
2022/03/15 17:51:58;;;;;;;8.95;3.10;;;;;;;;;;10442505;28;20045;-75
2022/03/15 17:57:14;;;;;;;14.93;3.80;;;;;;;;;;10434177;28;20052;-73
2022/03/15 18:02:20;;;;;;;15.95;4.13;;;;;;;;;;10444043;28;20044;-74
2022/03/15 18:07:27;;;;;;;17.52;3.38;;;;;;;;;;10444038;28;20044;-76
2022/03/15 18:12:31;;;;;;;23.27;4.13;;;;;;;;;;10426662;28;20507;-74
2022/03/15 18:17:36;;;;;;;22.30;3.80;;;;;;;;;;10439474;28;20055;-73
2022/03/15 18:22:39;;;;;;;20.02;4.68;;;;;;;;;;10423563;28;20110;-74
2022/03/15 18:27:43;;;;;;;20.20;5.57;;;;;;;;;;10450842;28;20047;-74
2022/03/15 18:32:46;;;;;;;18.58;5.20;;;;;;;;;;10428737;28;20131;-74
2022/03/15 18:37:55;;;;;;;15.73;4.05;;;;;;;;;;10447932;28;20029;-73
2022/03/15 18:43:03;;;;;;;17.42;5.40;;;;;;;;;;10434373;28;20086;-73
2022/03/15 18:48:07;;;;;;;18.08;5.32;;;;;;;;;;10462846;28;20550;-75
2022/03/15 18:53:11;;;;;;;14.38;3.78;;;;;;;;;;10428661;28;20033;-75
2022/03/15 18:58:14;;;;;;;;;;;;;;;;;;10444996;28;20286;-74
2022/03/15 19:03:23;;;;;;;5.40;2.37;;;;;;;;;;10432755;28;19920;-81
2022/03/15 19:08:30;;;;;;;16.77;5.47;;;;;;;;;;10457660;28;20063;-81
2022/03/15 19:13:33;;;;;;;16.15;5.65;;;;;;;;;;10442044;28;20637;-80
2022/03/15 19:18:37;;;;;;;14.60;3.88;;;;;;;;;;10448919;28;20181;-81
2022/03/15 19:23:40;;;;;;;5.72;1.95;;;;;;;;;;10459998;28;20157;-81
2022/03/15 19:28:44;;;;;;;7.28;2.47;;;;;;;;;;10443034;28;20041;-78
2022/03/15 19:33:49;;;;;;;5.88;2.20;;;;;;;;;;10457162;28;20033;-80
2022/03/15 19:38:54;;;;;;;19.05;5.00;;;;;;;;;;10439598;28;20032;-80
2022/03/15 19:43:57;;;;;;;16.63;4.63;;;;;;;;;;10465598;28;20057;-80
2022/03/15 19:49:14;;;;;;;14.38;4.90;;;;;;;;;;10440721;28;20032;-79
2022/03/15 19:54:18;;;;;;;10.48;3.15;;;;;;;;;;10444094;28;20614;-81
2022/03/15 19:59:23;;;;;;;11.57;3.23;;;;;;;;;;10455286;28;20105;-79
2022/03/15 20:04:30;;;;;;;19.02;4.45;;;;;;;;;;10456814;28;20041;-79
2022/03/15 20:09:34;;;;;;;5.72;2.42;;;;;;;;;;10462719;28;20040;-79
2022/03/15 20:14:39;;;;;;;18.67;4.78;;;;;;;;;;10451822;28;20033;-80
2022/03/15 20:19:47;;;;;;;3.95;2.38;;;;;;;;;;10462212;28;20299;-79
2022/03/15 20:24:51;;;;;;;11.07;3.90;;;;;;;;;;10466716;28;20037;-78
2022/03/15 20:29:55;;;;;;;14.32;3.55;;;;;;;;;;10483873;22;20185;-67
2022/03/15 20:34:59;;;;;;;20.23;5.13;;;;;;;;;;10450824;28;20048;-67
2022/03/15 20:40:06;;;;;;;18.80;4.00;;;;;;;;;;10464362;28;20092;-67
2022/03/15 20:45:09;;;;;;;13.70;3.45;;;;;;;;;;10458771;28;20040;-67
2022/03/15 20:50:14;;;;;;;5.50;1.85;;;;;;;;;;10477810;28;20615;-66
2022/03/15 20:55:18;;;;;;;9.90;2.67;;;;;;;;;;10478721;28;20082;-67
2022/03/15 21:00:21;;;;;;;16.02;4.05;;;;;;;;;;10458264;28;20123;-67
2022/03/15 21:05:26;;;;;;;10.68;3.20;;;;;;;;;;10459927;28;20038;-67
2022/03/15 21:10:40;;;;;;;5.35;2.47;;;;;;;;;;10488948;22;20146;-80
2022/03/15 21:15:48;;;;;;;5.93;2.08;;;;;;;;;;10475377;28;20052;-80
2022/03/15 21:20:53;;;;;;;8.27;3.15;;;;;;;;;;10480607;28;20037;-81
2022/03/15 21:25:57;;;;;;;10.90;4.05;;;;;;;;;;10478059;28;20110;-80
2022/03/15 21:30:59;;;;;;;14.02;3.75;;;;;;;;;;10488875;28;20586;-80
2022/03/15 21:36:05;;;;;;;14.77;3.67;;;;;;;;;;10488399;28;20045;-81
2022/03/15 21:41:09;;;;;;;16.13;4.43;;;;;;;;;;10482662;28;20103;-84
2022/03/15 21:46:14;;;;;;;14.73;4.37;;;;;;;;;;10482589;28;20040;-81
2022/03/15 21:51:21;;;;;;;10.60;3.60;;;;;;;;;;10485054;28;20094;-82
2022/03/15 21:56:27;;;;;;;9.95;3.83;;;;;;;;;;10483171;28;20047;-83
2022/03/15 22:01:34;;;;;;;13.43;4.35;;;;;;;;;;10495777;28;20037;-82
2022/03/15 22:06:37;;;;;;;;;;;;;;;;;;10497299;28;20092;-81
2022/03/15 22:11:46;;;;;;;10.68;3.10;;;;;;;;;;10487675;28;19996;-81
2022/03/15 22:16:49;;;;;;;9.05;3.20;;;;;;;;;;10479114;28;20048;-79
2022/03/15 22:21:53;;;;;;;17.23;4.00;;;;;;;;;;10480000;28;20439;-79
2022/03/15 22:27:03;;;;;;;7.35;2.25;;;;;;;;;;10493382;28;20094;-82
2022/03/15 23:25:26;;;;;;;3.78;1.25;;;;;;;;;;10489984;28;20450;-79
2022/03/15 23:30:29;;;;;;;;;;;;;;;;;;10487631;28;20032;-79
2022/03/15 23:35:35;;;;;;;9.77;3.13;;;;;;;;;;10486784;28;19932;-81
2022/03/15 23:40:38;;;;;;;6.68;2.65;;;;;;;;;;10488670;28;20041;-80
2022/03/15 23:45:41;;;;;;;11.93;3.27;;;;;;;;;;10490155;28;20114;-80
2022/03/15 23:50:45;;;;;;;;;;;;;;;;;;10486026;28;20295;-80
2022/03/15 23:55:50;;;;;;;14.07;3.30;;;;;;;;;;10483267;28;19921;-77
